Ellsworth, Michigan
Current Conditions -  °F | °C
As of 2:55 PM on Thursday 30 Oct 2014 (Local Time) from KCVX Reporting Station
Drizzle Drizzle  
Wind Chill: 40°   Ceiling: 3000
Heat Index: 44°   Visibility: 7mi
Dew Point: 40°   Wind: 7mph
Humidity: 86%   Direction: 250°WSW
Pressure: 30.04"   Gusts: NA
Location:  45.17°N, 85.25°W
Report Text: KCVX 301855Z AUTO 25006KT 7SM DZ SCT023 OVC030 07/05 A3004 RMK AO2 T00670045
Loading
Personal Weather Stations






























Interactive Weather Map
Tropical Storm Tracking
New forecast layout! Learn more

10-Day Weather Forecast

Advertisements
Track Severe Weather on mobile